Nur fliegen ist schöner ....

Willkommen beim Flugservice Bautzen GmbH

Wir sind eine nach europäischen Richtlinien zugelassene Flugschule und lizenziertes Luftfahrtunternehmen. Bei uns können sie nicht nur Rundflüge über die Oberlausitz oder Sachsen buchen, sondern in unserer Flugschule selber das Fliegen erlernen. Erfahrene Fluglehrer stehen ihnen dabei zur Seite.

Wir bieten Ihnen außerdem spezielle Flüge zur Vermessung oder Fotoflüge für Luftbildaufnahmen an. In Zusammenarbeit mit dem Fallschirmsportclub Dresden und dem Cottbuser Fallschirmsportclub setzen wir am Flugplatz Bautzen und Neuhausen Fallschirmspringer ab.
Schauen sie sich in Ruhe bei uns um und wenn sie Fragen haben oder weitere Informationen benötigen, scheuen sie sich nicht Kontakt mit uns aufzunehmen.

Rundflüge können sie ganz leicht auch online in unserem Shop buchen.

Terminkalender

Letzter Monat September 2018 Nächster Monat
Mo Di Mi Do Fr Sa So
week 35 1 2
week 36 3 4 5 6 7 8 9
week 37 10 11 12 13 14 15 16
week 38 17 18 19 20 21 22 23
week 39 24 25 26 27 28 29 30

Flugwetterinfo

[Quelle: ADDS]
METAR
EDDC 191520Z 23006KT 190V280 CAVOK 28/09 Q1018 NOSIG =
EDDC 191100Z 1912/2012 14003KT CAVOK
TAF
EDDC 191100Z 1912/2012 14003KT CAVOK =
SR / SS: 04:43 / 17:07 UTC (EDAB Flugplatz Bautzen 2018-09-19)

Webcam EDAB

Webcam EDAB
Flugservice Bautzen GmbH, Kornmarkt 34, 02625 Bautzen  Telefon: +49 (3591) 211105, Telefax: +49 (3591) 274512, E-Mail:  flugservice(at)fsbautzen.de